Disclaimer

Please do not use the information listed here in-flight or in-navigation, as they are not provided to us by the airports but are provided by volunteers, so they might be outdated.

Search


Regions


Airport information page

Radio informations:
Tower (TWR) - 118.7 MHz

Airport informations:
Latitude: 42° 21' 51.00" N
Longitude: 069° 28' 44.00" E
Elevation: 1385 feet - 422 meters
Operating hours: 24 hour operations
Operating agency: Civil government, landing fees and diplomatic clearance may be required
Timezone: UTC+6
Fuel: Jet A1, without icing nhibitor.

Unknown fuel type or whether there is any fuel.

Runway information:
10/28 - 9186 x 144 feet< - >2800 x 44 meters

Recent METARs:
UAII 151100Z 36003MPS CAVOK 09/M03 Q1030 R10/0///70 NOSIG RMK QFE737/0983
UAII 151130Z 36002MPS CAVOK 08/M03 Q1030 R10/0///70 NOSIG RMK QFE737/0983
UAII 151200Z 35002MPS CAVOK 06/M03 Q1030 R10/0///70 NOSIG RMK QFE737/0983

Airport on the map: